Time;durP1;ratioP1;P1;durP2;ratioP2;P2;SDS_P1;SDS_P2;PMS_P1;PMS_P2;Temp;Humidity;BMP_temperature;BMP_pressure;BME280_temperature;BME280_humidity;BME280_pressure;Samples;Min_cycle;Max_cycle;Signal;HPM_P1;HPM_P2
2024/04/19 00:02:39;;;;;;;;;;;;;;;3.35;72.66;99688.88;130281;1263;107740;-77
2024/04/19 00:05:42;;;;;;;;;;;;;;;3.29;72.51;99686.88;130329;1258;106326;-77
2024/04/19 00:09:06;;;;;;;;;;;;;;;3.20;72.85;99687.20;130305;1259;107710;-80
2024/04/19 00:12:10;;;;;;;;;;;;;;;3.14;72.72;99685.56;130355;1262;107642;-77
2024/04/19 00:15:14;;;;;;;;;;;;;;;3.10;72.86;99687.33;130211;1262;108651;-77
2024/04/19 00:18:17;;;;;;;;;;;;;;;3.05;72.75;99683.48;130157;1258;108056;-77
2024/04/19 00:21:22;;;;;;;;;;;;;;;3.00;72.73;99685.06;130355;1262;106748;-76
2024/04/19 00:24:25;;;;;;;;;;;;;;;2.95;72.75;99678.56;130449;1262;106416;-77
2024/04/19 00:27:29;;;;;;;;;;;;;;;2.92;72.41;99673.36;130479;1262;106711;-77
2024/04/19 00:30:34;;;;;;;;;;;;;;;2.88;72.63;99672.62;130468;1257;107925;-77
2024/04/19 00:33:37;;;;;;;;;;;;;;;2.83;72.39;99676.17;130404;1258;107439;-78
2024/04/19 00:36:41;;;;;;;;;;;;;;;2.77;72.25;99671.37;130457;1262;107073;-78
2024/04/19 00:39:45;;;;;;;;;;;;;;;2.72;72.31;99675.45;130435;1274;106739;-78
2024/04/19 00:42:50;;;;;;;;;;;;;;;2.66;72.28;99671.70;130338;1262;106779;-77
2024/04/19 00:45:54;;;;;;;;;;;;;;;2.61;72.19;99672.93;130283;1258;106482;-77
2024/04/19 00:48:58;;;;;;;;;;;;;;;2.56;72.36;99675.58;130355;1262;106774;-78
2024/04/19 00:52:03;;;;;;;;;;;;;;;2.52;72.33;99666.41;130353;1267;106780;-79
2024/04/19 00:55:08;;;;;;;;;;;;;;;2.49;72.39;99668.74;130336;1262;107783;-78
2024/04/19 00:58:11;;;;;;;;;;;;;;;2.47;72.50;99663.63;130397;1262;107669;-78
2024/04/19 01:01:15;;;;;;;;;;;;;;;2.43;72.38;99663.75;130423;1262;106928;-78
2024/04/19 01:04:20;;;;;;;;;;;;;;;2.41;72.43;99659.91;130322;1262;106662;-77
2024/04/19 01:07:24;;;;;;;;;;;;;;;2.38;72.45;99659.39;130315;1261;107412;-78
2024/04/19 01:10:28;;;;;;;;;;;;;;;2.35;72.49;99653.48;130371;1262;108718;-78
2024/04/19 01:13:32;;;;;;;;;;;;;;;2.32;72.31;99654.55;130440;1262;106457;-78
2024/04/19 01:16:37;;;;;;;;;;;;;;;2.29;72.47;99650.59;130449;1262;105568;-78
2024/04/19 01:19:40;;;;;;;;;;;;;;;2.25;72.39;99648.61;130427;1257;107397;-78
2024/04/19 01:22:45;;;;;;;;;;;;;;;2.17;72.04;99641.70;130357;1258;106119;-78
2024/04/19 01:25:49;;;;;;;;;;;;;;;2.10;72.05;99645.90;130315;1257;106847;-78
2024/04/19 01:28:52;;;;;;;;;;;;;;;2.06;72.09;99642.11;130271;1258;108816;-78
2024/04/19 01:31:56;;;;;;;;;;;;;;;2.04;72.15;99643.69;130348;1262;107009;-78
2024/04/19 01:35:00;;;;;;;;;;;;;;;2.02;72.15;99639.81;130304;1260;108335;-78
2024/04/19 01:38:04;;;;;;;;;;;;;;;2.00;72.27;99638.59;130311;1257;105805;-78
2024/04/19 01:41:08;;;;;;;;;;;;;;;1.98;72.47;99639.58;130309;1264;108124;-78
2024/04/19 01:44:11;;;;;;;;;;;;;;;1.96;72.58;99639.88;130402;1261;106675;-78
2024/04/19 01:47:15;;;;;;;;;;;;;;;1.94;72.88;99638.25;130314;1262;106451;-78
2024/04/19 01:50:19;;;;;;;;;;;;;;;1.93;73.03;99635.16;130360;1258;107050;-78
2024/04/19 01:53:23;;;;;;;;;;;;;;;1.91;73.25;99636.88;130310;1262;107582;-78
2024/04/19 01:56:26;;;;;;;;;;;;;;;1.90;73.43;99636.14;130284;1257;107589;-78
2024/04/19 01:59:30;;;;;;;;;;;;;;;1.88;73.52;99639.02;130428;1262;106773;-78
2024/04/19 02:02:33;;;;;;;;;;;;;;;1.88;73.63;99635.74;130473;1262;106358;-77
2024/04/19 02:05:37;;;;;;;;;;;;;;;1.88;73.70;99639.23;130438;1262;105495;-77
2024/04/19 02:08:41;;;;;;;;;;;;;;;1.87;73.75;99634.55;130437;1262;107307;-77
2024/04/19 02:11:45;;;;;;;;;;;;;;;1.88;73.90;99631.66;130352;1262;107431;-78
2024/04/19 02:14:48;;;;;;;;;;;;;;;1.88;73.97;99632.06;130341;1257;107009;-77
2024/04/19 02:17:52;;;;;;;;;;;;;;;1.88;74.07;99631.17;130303;1257;106695;-77
2024/04/19 02:20:56;;;;;;;;;;;;;;;1.90;74.12;99628.70;130372;1262;106466;-78
2024/04/19 02:24:01;;;;;;;;;;;;;;;1.94;74.20;99627.36;130292;1262;106515;-78
2024/04/19 02:27:17;;;;;;;;;;;;;;;2.03;74.27;99622.36;130680;1258;106746;-78
2024/04/19 02:33:44;;;;;;;;;;;;;;;2.26;74.30;99617.97;130244;1260;106974;-76
2024/04/19 02:36:48;;;;;;;;;;;;;;;2.38;74.14;99617.11;130227;1259;106688;-75
2024/04/19 02:39:52;;;;;;;;;;;;;;;2.52;74.14;99610.26;130332;1264;108711;-75
2024/04/19 02:42:56;;;;;;;;;;;;;;;2.64;74.17;99614.23;130394;1263;107457;-84
2024/04/19 02:46:03;;;;;;;;;;;;;;;2.80;74.25;99607.77;130760;1257;106879;-80
2024/04/19 02:49:07;;;;;;;;;;;;;;;2.95;74.12;99608.13;130512;1262;107508;-80
2024/04/19 02:52:11;;;;;;;;;;;;;;;3.07;74.20;99605.80;130462;1257;108470;-80
2024/04/19 02:55:15;;;;;;;;;;;;;;;3.15;74.27;99601.09;130908;1262;106617;-80
2024/04/19 02:58:19;;;;;;;;;;;;;;;3.19;74.30;99599.97;130512;1258;107435;-79
2024/04/19 03:01:22;;;;;;;;;;;;;;;3.18;74.25;99598.80;130531;1262;107082;-80
2024/04/19 03:04:26;;;;;;;;;;;;;;;3.14;74.33;99596.10;130448;1258;107548;-80
2024/04/19 03:07:30;;;;;;;;;;;;;;;3.09;74.58;99592.44;130378;1262;106293;-78
2024/04/19 03:10:37;;;;;;;;;;;;;;;3.07;74.47;99598.06;130403;1259;107435;-80
2024/04/19 03:13:41;;;;;;;;;;;;;;;3.05;74.67;99598.38;130239;1262;107625;-80
2024/04/19 03:16:44;;;;;;;;;;;;;;;3.04;74.60;99595.67;130112;1262;107614;-81
2024/04/19 03:19:48;;;;;;;;;;;;;;;3.04;74.89;99595.14;130556;1262;105318;-80
2024/04/19 03:22:52;;;;;;;;;;;;;;;3.03;75.05;99590.67;130454;1261;107779;-80
2024/04/19 03:25:58;;;;;;;;;;;;;;;3.01;75.12;99590.66;130393;1257;108446;-80
2024/04/19 03:29:02;;;;;;;;;;;;;;;3.01;75.11;99586.11;130428;1257;108756;-80
2024/04/19 03:32:06;;;;;;;;;;;;;;;2.98;75.27;99582.29;130401;1262;107191;-81
2024/04/19 03:35:09;;;;;;;;;;;;;;;2.97;75.41;99587.60;130416;1257;106639;-80
2024/04/19 03:38:14;;;;;;;;;;;;;;;2.96;75.72;99587.34;130434;1262;107094;-81
2024/04/19 03:41:18;;;;;;;;;;;;;;;2.96;75.83;99585.20;130429;1262;108699;-80
2024/04/19 03:47:43;;;;;;;;;;;;;;;3.02;76.07;99577.41;130346;1257;106561;-80
2024/04/19 03:50:47;;;;;;;;;;;;;;;3.05;76.13;99578.73;130256;1262;108757;-80
2024/04/19 03:53:51;;;;;;;;;;;;;;;3.08;76.21;99581.64;130391;1262;106819;-80
2024/04/19 03:56:54;;;;;;;;;;;;;;;3.11;76.29;99577.73;130333;1262;106798;-80
2024/04/19 03:59:58;;;;;;;;;;;;;;;3.16;76.21;99580.67;130421;1262;107754;-79
2024/04/19 04:03:02;;;;;;;;;;;;;;;3.20;76.35;99578.09;130305;1262;106497;-79
2024/04/19 04:06:06;;;;;;;;;;;;;;;3.22;76.49;99586.52;130278;1262;108628;-81
2024/04/19 04:09:09;;;;;;;;;;;;;;;3.26;76.43;99586.23;130296;1258;107251;-81
2024/04/19 04:12:13;;;;;;;;;;;;;;;3.30;76.61;99590.64;130673;1258;107059;-80
2024/04/19 04:15:17;;;;;;;;;;;;;;;3.33;76.54;99587.73;130363;1262;107697;-80
2024/04/19 04:18:20;;;;;;;;;;;;;;;3.36;76.55;99588.71;130346;1262;106901;-80
2024/04/19 04:21:24;;;;;;;;;;;;;;;3.43;76.60;99586.78;130337;1262;105828;-80
2024/04/19 04:24:28;;;;;;;;;;;;;;;3.50;76.70;99585.19;130379;1262;106919;-80
2024/04/19 04:27:32;;;;;;;;;;;;;;;3.58;76.82;99586.09;130353;1259;108592;-81
2024/04/19 04:30:37;;;;;;;;;;;;;;;3.71;76.93;99580.31;130516;1262;106599;-80
2024/04/19 04:33:41;;;;;;;;;;;;;;;3.83;76.95;99573.86;130515;1257;106424;-80
2024/04/19 04:36:44;;;;;;;;;;;;;;;3.97;76.92;99564.80;130496;1259;108448;-81
2024/04/19 04:39:48;;;;;;;;;;;;;;;4.11;76.84;99553.23;130565;1258;108001;-80
2024/04/19 04:42:52;;;;;;;;;;;;;;;4.31;76.84;99546.10;130299;1262;107802;-80
2024/04/19 04:45:55;;;;;;;;;;;;;;;4.49;76.83;99544.16;130536;1259;108747;-81
2024/04/19 04:49:00;;;;;;;;;;;;;;;4.68;76.75;99542.95;130379;1257;107747;-80
2024/04/19 04:52:03;;;;;;;;;;;;;;;4.86;76.74;99542.95;130599;1259;108753;-81
2024/04/19 04:55:07;;;;;;;;;;;;;;;5.06;76.83;99537.17;130741;1260;107915;-80
2024/04/19 04:58:11;;;;;;;;;;;;;;;5.22;76.75;99537.29;130500;1256;107572;-80
2024/04/19 05:01:15;;;;;;;;;;;;;;;5.39;76.69;99535.66;130469;1262;106693;-76
2024/04/19 05:04:18;;;;;;;;;;;;;;;5.51;76.63;99530.14;130540;1259;107751;-76
2024/04/19 05:07:25;;;;;;;;;;;;;;;5.62;76.48;99522.48;130562;1262;106354;-76
2024/04/19 05:10:29;;;;;;;;;;;;;;;5.68;76.60;99516.63;130542;1262;106966;-76
2024/04/19 05:13:33;;;;;;;;;;;;;;;5.77;76.75;99510.27;130529;1262;106761;-77
2024/04/19 05:16:37;;;;;;;;;;;;;;;5.87;76.55;99505.80;130461;1259;107605;-76
2024/04/19 05:19:40;;;;;;;;;;;;;;;5.91;76.74;99500.92;130394;1259;106481;-76
2024/04/19 05:22:44;;;;;;;;;;;;;;;5.91;76.58;99497.34;130230;1259;106080;-77
2024/04/19 05:25:50;;;;;;;;;;;;;;;5.89;76.58;99494.96;130197;1262;107790;-76
2024/04/19 05:28:54;;;;;;;;;;;;;;;5.89;76.34;99489.45;130287;1262;106970;-76
2024/04/19 05:31:57;;;;;;;;;;;;;;;5.92;76.52;99495.37;130276;1262;106562;-77
2024/04/19 05:35:01;;;;;;;;;;;;;;;5.95;76.49;99495.99;130250;1257;107411;-76
2024/04/19 05:38:05;;;;;;;;;;;;;;;5.96;76.38;99497.17;130241;1262;106481;-77
2024/04/19 05:41:09;;;;;;;;;;;;;;;5.97;76.08;99494.95;130206;1262;108727;-77
2024/04/19 05:44:18;;;;;;;;;;;;;;;5.98;76.16;99492.52;130306;1260;106836;-77
2024/04/19 05:47:22;;;;;;;;;;;;;;;6.00;76.29;99489.67;130307;1257;108043;-76
2024/04/19 05:50:26;;;;;;;;;;;;;;;6.03;76.26;99488.05;130286;1262;106800;-76
2024/04/19 05:53:30;;;;;;;;;;;;;;;6.03;76.17;99479.71;130215;1262;106343;-78
2024/04/19 05:56:33;;;;;;;;;;;;;;;6.05;76.24;99481.45;130385;1262;106359;-78
2024/04/19 05:59:37;;;;;;;;;;;;;;;6.12;76.20;99481.51;130424;1262;106478;-78
2024/04/19 06:02:41;;;;;;;;;;;;;;;6.27;76.54;99477.08;130370;1262;108757;-79
2024/04/19 06:05:45;;;;;;;;;;;;;;;6.48;76.22;99479.17;130366;1262;108545;-79
2024/04/19 06:08:49;;;;;;;;;;;;;;;6.72;76.46;99467.87;130242;1262;106884;-78
2024/04/19 06:11:53;;;;;;;;;;;;;;;6.99;76.13;99467.19;130257;1262;107548;-78
2024/04/19 06:14:56;;;;;;;;;;;;;;;7.19;75.89;99459.07;130271;1262;107688;-79
2024/04/19 06:18:00;;;;;;;;;;;;;;;7.28;75.49;99452.55;130276;1262;108610;-79
2024/04/19 06:21:04;;;;;;;;;;;;;;;7.33;75.45;99457.17;130332;1262;108671;-79
2024/04/19 06:24:08;;;;;;;;;;;;;;;7.44;75.30;99454.89;130347;1262;107387;-78
2024/04/19 06:27:13;;;;;;;;;;;;;;;7.52;74.92;99450.97;130262;1262;105464;-79
2024/04/19 06:30:17;;;;;;;;;;;;;;;7.56;75.05;99455.52;130283;1260;107520;-79
2024/04/19 06:33:21;;;;;;;;;;;;;;;7.70;74.67;99441.72;130331;1257;107014;-79
2024/04/19 06:36:25;;;;;;;;;;;;;;;7.78;74.46;99444.23;130320;1261;106992;-79
2024/04/19 06:39:28;;;;;;;;;;;;;;;7.77;74.09;99440.98;130277;1262;109083;-80
2024/04/19 06:42:32;;;;;;;;;;;;;;;7.71;73.98;99438.60;130011;1262;106885;-82
2024/04/19 06:45:37;;;;;;;;;;;;;;;7.70;73.94;99433.76;130121;1260;106927;-79
2024/04/19 06:48:40;;;;;;;;;;;;;;;7.77;73.90;99434.55;130382;1262;107280;-79
2024/04/19 06:51:44;;;;;;;;;;;;;;;7.79;73.69;99432.09;130324;1262;106941;-78
2024/04/19 06:54:48;;;;;;;;;;;;;;;7.77;73.61;99429.59;130370;1259;106427;-78
2024/04/19 06:57:55;;;;;;;;;;;;;;;7.83;73.49;99431.46;130356;1262;106675;-78
2024/04/19 07:00:58;;;;;;;;;;;;;;;7.89;73.19;99426.13;130256;1259;108789;-78
2024/04/19 07:04:03;;;;;;;;;;;;;;;8.00;73.15;99424.15;130325;1262;107975;-79
2024/04/19 07:07:06;;;;;;;;;;;;;;;8.16;73.25;99421.03;130331;1259;107180;-79
2024/04/19 07:10:10;;;;;;;;;;;;;;;8.44;73.01;99418.35;130299;1259;107736;-78
2024/04/19 07:13:14;;;;;;;;;;;;;;;8.66;72.94;99413.92;130274;1262;107119;-78
2024/04/19 07:16:17;;;;;;;;;;;;;;;8.75;72.42;99411.77;130236;1262;107027;-79
2024/04/19 07:19:21;;;;;;;;;;;;;;;8.80;71.76;99410.70;130285;1257;107919;-80
2024/04/19 07:22:25;;;;;;;;;;;;;;;8.79;70.06;99409.38;130313;1262;107197;-79
2024/04/19 07:25:28;;;;;;;;;;;;;;;8.69;69.81;99409.24;130276;1271;106686;-79
2024/04/19 07:28:32;;;;;;;;;;;;;;;8.59;69.78;99404.94;130205;1262;107210;-78
2024/04/19 07:31:36;;;;;;;;;;;;;;;8.41;69.04;99411.81;130334;1262;106410;-79
2024/04/19 07:34:39;;;;;;;;;;;;;;;8.31;68.58;99405.33;130349;1262;107050;-79
2024/04/19 07:37:43;;;;;;;;;;;;;;;8.24;68.86;99402.11;130318;1262;107456;-79
2024/04/19 07:40:47;;;;;;;;;;;;;;;8.13;68.69;99402.02;130250;1259;107993;-78
2024/04/19 07:43:50;;;;;;;;;;;;;;;7.98;68.54;99401.83;130294;1262;107352;-79
2024/04/19 07:46:54;;;;;;;;;;;;;;;7.92;69.16;99398.08;130286;1261;108561;-79
2024/04/19 07:49:58;;;;;;;;;;;;;;;7.88;69.44;99394.50;130343;1262;107539;-78
2024/04/19 07:53:01;;;;;;;;;;;;;;;7.91;69.69;99386.98;130215;1262;106281;-80
2024/04/19 07:56:05;;;;;;;;;;;;;;;7.98;70.12;99382.31;130266;1260;106274;-80
2024/04/19 07:59:09;;;;;;;;;;;;;;;8.14;70.18;99373.08;130230;1262;108409;-79
2024/04/19 08:02:13;;;;;;;;;;;;;;;8.26;69.64;99370.72;130279;1262;107804;-79
2024/04/19 08:05:17;;;;;;;;;;;;;;;8.40;69.63;99373.45;130320;1262;108429;-79
2024/04/19 08:08:21;;;;;;;;;;;;;;;8.46;68.56;99371.35;130258;1263;108665;-78
2024/04/19 08:11:25;;;;;;;;;;;;;;;8.44;67.54;99372.61;130345;1262;106564;-80
2024/04/19 08:14:28;;;;;;;;;;;;;;;8.57;67.73;99374.30;130275;1262;107093;-79
2024/04/19 08:17:32;;;;;;;;;;;;;;;8.77;67.22;99363.72;130255;1260;108802;-79
2024/04/19 08:20:36;;;;;;;;;;;;;;;8.95;67.78;99359.82;130299;1262;108690;-79
2024/04/19 08:23:39;;;;;;;;;;;;;;;8.96;63.13;99357.70;130276;1262;107532;-78
2024/04/19 08:26:43;;;;;;;;;;;;;;;8.83;66.03;99352.60;130287;1262;107129;-79
2024/04/19 08:29:47;;;;;;;;;;;;;;;8.89;66.03;99341.83;130343;1262;108439;-80
2024/04/19 08:32:51;;;;;;;;;;;;;;;9.09;66.67;99337.38;130295;1262;107858;-79
2024/04/19 08:35:55;;;;;;;;;;;;;;;9.27;64.43;99331.73;130284;1262;106299;-80
2024/04/19 08:38:59;;;;;;;;;;;;;;;9.31;61.42;99324.99;130332;1262;108693;-79
2024/04/19 08:42:05;;;;;;;;;;;;;;;9.40;63.41;99325.66;130252;1262;108838;-80
2024/04/19 08:45:11;;;;;;;;;;;;;;;9.57;62.06;99324.70;130217;1260;106748;-80
2024/04/19 08:48:15;;;;;;;;;;;;;;;9.74;61.73;99322.77;130320;1259;108761;-79
2024/04/19 08:51:21;;;;;;;;;;;;;;;9.77;60.98;99320.27;130316;1259;106842;-80
2024/04/19 08:54:26;;;;;;;;;;;;;;;9.77;60.99;99316.55;130365;1262;108713;-79
2024/04/19 08:57:30;;;;;;;;;;;;;;;9.84;60.18;99314.80;130261;1262;107644;-79
2024/04/19 09:00:33;;;;;;;;;;;;;;;9.97;59.77;99317.23;130317;1262;107078;-80
2024/04/19 09:03:37;;;;;;;;;;;;;;;10.00;56.23;99311.39;130256;1263;108631;-80
2024/04/19 09:06:41;;;;;;;;;;;;;;;10.04;57.83;99312.34;130257;1260;108802;-80
2024/04/19 09:09:47;;;;;;;;;;;;;;;10.31;59.73;99304.70;130343;1262;106916;-80
2024/04/19 09:12:50;;;;;;;;;;;;;;;10.63;57.99;99295.34;130339;1262;107589;-79
2024/04/19 09:15:54;;;;;;;;;;;;;;;10.87;59.74;99294.59;130326;1270;108779;-79
2024/04/19 09:18:58;;;;;;;;;;;;;;;10.97;56.77;99298.67;130297;1262;107602;-80
2024/04/19 09:22:02;;;;;;;;;;;;;;;10.91;56.55;99290.14;130261;1262;108380;-80
2024/04/19 09:25:06;;;;;;;;;;;;;;;10.69;54.43;99291.27;130227;1262;107795;-80
2024/04/19 09:28:12;;;;;;;;;;;;;;;10.62;56.01;99292.49;130256;1260;107605;-80
2024/04/19 09:31:16;;;;;;;;;;;;;;;10.66;57.00;99284.33;130355;1262;108858;-79
2024/04/19 09:34:20;;;;;;;;;;;;;;;10.61;55.77;99295.57;130330;1257;107801;-79
2024/04/19 09:37:24;;;;;;;;;;;;;;;10.53;54.44;99291.42;130312;1259;107850;-80
2024/04/19 09:40:28;;;;;;;;;;;;;;;10.55;54.57;99293.84;130373;1262;107809;-79
2024/04/19 09:43:34;;;;;;;;;;;;;;;10.57;55.65;99285.73;130532;1262;106455;-80
2024/04/19 09:46:41;;;;;;;;;;;;;;;10.90;55.90;99281.61;130382;1262;108552;-80
2024/04/19 09:49:46;;;;;;;;;;;;;;;11.12;53.85;99273.38;130418;1262;108580;-80
2024/04/19 09:52:50;;;;;;;;;;;;;;;11.22;50.24;99272.13;130495;1257;106910;-80
2024/04/19 09:56:01;;;;;;;;;;;;;;;11.22;51.57;99268.03;130416;1262;108566;-79
2024/04/19 09:59:05;;;;;;;;;;;;;;;11.33;54.28;99261.00;130460;1257;107211;-80
2024/04/19 10:02:09;;;;;;;;;;;;;;;11.44;53.74;99258.66;130516;1263;107781;-79
2024/04/19 10:05:12;;;;;;;;;;;;;;;11.48;54.90;99250.20;130379;1262;106636;-79
2024/04/19 10:08:16;;;;;;;;;;;;;;;11.54;54.02;99250.34;130372;1268;107281;-79
2024/04/19 10:11:21;;;;;;;;;;;;;;;11.43;52.31;99247.79;130511;1262;107726;-79
2024/04/19 10:14:29;;;;;;;;;;;;;;;11.24;53.54;99258.44;130546;1261;106747;-79
2024/04/19 10:17:32;;;;;;;;;;;;;;;11.02;54.76;99250.45;130442;1262;108769;-77
2024/04/19 10:20:40;;;;;;;;;;;;;;;10.91;54.34;99249.05;130443;1262;107964;-78
2024/04/19 10:23:47;;;;;;;;;;;;;;;10.88;55.95;99240.56;130439;1263;107601;-78
2024/04/19 10:26:51;;;;;;;;;;;;;;;10.95;56.28;99237.19;130433;1262;106613;-79
2024/04/19 10:29:54;;;;;;;;;;;;;;;10.98;55.96;99234.98;130404;1257;107291;-78
2024/04/19 10:32:59;;;;;;;;;;;;;;;11.06;56.12;99236.00;130375;1261;107195;-78
2024/04/19 10:36:04;;;;;;;;;;;;;;;11.17;55.87;99224.71;130231;1264;107765;-78
2024/04/19 10:39:08;;;;;;;;;;;;;;;11.28;55.75;99215.73;130273;1262;107040;-78
2024/04/19 10:42:12;;;;;;;;;;;;;;;11.40;54.94;99208.09;130269;1262;106835;-76
2024/04/19 10:45:16;;;;;;;;;;;;;;;11.48;54.86;99206.23;130367;1259;107230;-78
2024/04/19 10:48:20;;;;;;;;;;;;;;;11.56;53.15;99201.73;130234;1271;107048;-78
2024/04/19 10:51:26;;;;;;;;;;;;;;;11.58;52.49;99198.27;130280;1263;107371;-78
2024/04/19 10:54:30;;;;;;;;;;;;;;;11.68;54.04;99191.69;130227;1262;107810;-78
2024/04/19 10:57:33;;;;;;;;;;;;;;;11.92;54.21;99189.83;130225;1262;108316;-79
2024/04/19 11:00:37;;;;;;;;;;;;;;;12.19;53.74;99182.84;130252;1263;106618;-79
2024/04/19 11:03:41;;;;;;;;;;;;;;;12.42;53.00;99174.59;130288;1262;108420;-79
2024/04/19 11:06:44;;;;;;;;;;;;;;;12.61;51.83;99181.64;130265;1262;108502;-79
2024/04/19 11:09:49;;;;;;;;;;;;;;;12.71;53.05;99185.30;130207;1271;106327;-78
2024/04/19 11:12:53;;;;;;;;;;;;;;;12.80;53.49;99181.27;130271;1260;106620;-79
2024/04/19 11:15:58;;;;;;;;;;;;;;;12.77;50.05;99177.54;130253;1262;107428;-80
2024/04/19 11:19:01;;;;;;;;;;;;;;;12.63;52.27;99171.48;130283;1262;107581;-81
2024/04/19 11:22:05;;;;;;;;;;;;;;;12.74;52.25;99169.15;130268;1263;106509;-78
2024/04/19 11:25:11;;;;;;;;;;;;;;;12.70;51.71;99164.13;130318;1261;107817;-78
2024/04/19 11:28:14;;;;;;;;;;;;;;;12.87;52.72;99155.61;130312;1262;109391;-79
2024/04/19 11:31:18;;;;;;;;;;;;;;;13.02;52.73;99150.85;130282;1259;107621;-79
2024/04/19 11:34:29;;;;;;;;;;;;;;;13.01;53.20;99147.63;130246;1271;106643;-79
2024/04/19 11:37:33;;;;;;;;;;;;;;;13.06;53.36;99146.10;130219;1262;106966;-79
2024/04/19 11:40:37;;;;;;;;;;;;;;;13.21;52.86;99144.96;130306;1271;108547;-79
2024/04/19 11:43:41;;;;;;;;;;;;;;;13.43;53.00;99141.06;130243;1266;108514;-79
2024/04/19 11:46:45;;;;;;;;;;;;;;;13.68;53.20;99135.52;130313;1262;106481;-79
2024/04/19 11:49:48;;;;;;;;;;;;;;;13.94;52.57;99130.95;130176;1263;105680;-80
2024/04/19 11:52:52;;;;;;;;;;;;;;;14.11;51.89;99128.13;130181;1257;106702;-80
2024/04/19 11:55:56;;;;;;;;;;;;;;;14.23;51.77;99122.05;130186;1262;107771;-80
2024/04/19 11:58:59;;;;;;;;;;;;;;;14.40;51.88;99114.83;130275;1264;106416;-80
2024/04/19 12:02:04;;;;;;;;;;;;;;;14.47;51.28;99121.89;130239;1271;106902;-79
2024/04/19 12:05:08;;;;;;;;;;;;;;;14.41;50.92;99115.48;130307;1262;107094;-80
2024/04/19 12:08:12;;;;;;;;;;;;;;;14.28;50.65;99119.44;130321;1262;106571;-81
2024/04/19 12:11:15;;;;;;;;;;;;;;;14.01;49.85;99114.61;130302;1271;106336;-79
2024/04/19 12:14:19;;;;;;;;;;;;;;;13.93;50.23;99114.17;130288;1263;106729;-79
2024/04/19 12:17:23;;;;;;;;;;;;;;;14.00;50.68;99108.88;130264;1262;107114;-79
2024/04/19 12:20:27;;;;;;;;;;;;;;;14.07;50.96;99103.78;130277;1262;107730;-79
2024/04/19 12:23:31;;;;;;;;;;;;;;;14.07;51.11;99100.85;130225;1261;106675;-80
2024/04/19 12:26:34;;;;;;;;;;;;;;;13.96;51.01;99097.61;130234;1271;106374;-79
2024/04/19 12:29:38;;;;;;;;;;;;;;;13.75;51.43;99100.12;130235;1263;106512;-79
2024/04/19 12:32:42;;;;;;;;;;;;;;;13.60;51.68;99101.02;130255;1261;106907;-79
2024/04/19 12:35:46;;;;;;;;;;;;;;;13.52;51.80;99098.67;130250;1271;108419;-79
2024/04/19 12:38:49;;;;;;;;;;;;;;;13.51;51.67;99095.70;130279;1262;108761;-79
2024/04/19 12:41:53;;;;;;;;;;;;;;;13.55;51.50;99088.14;130210;1263;108610;-79
2024/04/19 12:44:57;;;;;;;;;;;;;;;13.60;51.92;99084.92;130497;1271;107773;-79
2024/04/19 12:48:04;;;;;;;;;;;;;;;13.58;51.62;99086.13;130463;1263;107550;-81
2024/04/19 12:51:08;;;;;;;;;;;;;;;13.50;51.69;99083.74;130490;1263;105509;-80
2024/04/19 12:54:14;;;;;;;;;;;;;;;13.43;51.69;99081.04;130422;1271;109278;-80
2024/04/19 12:57:18;;;;;;;;;;;;;;;13.45;51.60;99072.39;130462;1270;108600;-80
2024/04/19 13:00:22;;;;;;;;;;;;;;;13.57;51.62;99066.90;130426;1262;108879;-79
2024/04/19 13:03:26;;;;;;;;;;;;;;;13.76;51.53;99064.11;130335;1271;107507;-80
2024/04/19 13:06:30;;;;;;;;;;;;;;;13.95;51.14;99055.55;130209;1271;107160;-79
2024/04/19 13:09:33;;;;;;;;;;;;;;;14.06;50.95;99050.30;130238;1262;106394;-80
2024/04/19 13:12:37;;;;;;;;;;;;;;;14.08;50.72;99041.14;130435;1263;106941;-80
2024/04/19 13:15:41;;;;;;;;;;;;;;;14.14;51.06;99043.48;130438;1263;107572;-80
2024/04/19 13:18:45;;;;;;;;;;;;;;;14.14;50.53;99037.75;130422;1263;106694;-81
2024/04/19 13:21:49;;;;;;;;;;;;;;;13.96;50.16;99036.09;130319;1263;107893;-80
2024/04/19 13:24:53;;;;;;;;;;;;;;;13.67;50.09;99032.70;130303;1263;108743;-79
2024/04/19 13:27:56;;;;;;;;;;;;;;;13.33;50.21;99039.94;130494;1263;106822;-79
2024/04/19 13:31:00;;;;;;;;;;;;;;;12.97;50.81;99052.21;130452;1262;106608;-81
2024/04/19 13:34:03;;;;;;;;;;;;;;;12.61;51.47;99077.92;130376;1268;107767;-80
2024/04/19 13:37:08;;;;;;;;;;;;;;;12.11;52.44;99097.15;130339;1263;108020;-79
2024/04/19 13:40:12;;;;;;;;;;;;;;;11.60;53.28;99106.23;130225;1273;107527;-80
2024/04/19 13:43:15;;;;;;;;;;;;;;;10.93;55.69;99109.63;130355;1271;107929;-80
2024/04/19 13:46:19;;;;;;;;;;;;;;;10.06;58.19;99125.76;130275;1267;106852;-79
2024/04/19 13:49:23;;;;;;;;;;;;;;;9.46;57.54;99140.52;130221;1271;106598;-79
2024/04/19 13:52:27;;;;;;;;;;;;;;;9.20;56.85;99143.36;130297;1271;106693;-78
2024/04/19 13:55:31;;;;;;;;;;;;;;;9.08;57.29;99138.80;130303;1263;106950;-78
2024/04/19 13:58:39;;;;;;;;;;;;;;;9.06;57.40;99139.60;130212;1263;106626;-79
2024/04/19 14:01:42;;;;;;;;;;;;;;;8.98;57.89;99144.51;130251;1263;108809;-79
2024/04/19 14:04:46;;;;;;;;;;;;;;;8.90;58.00;99146.27;130355;1271;106870;-78
2024/04/19 14:07:50;;;;;;;;;;;;;;;8.95;58.45;99149.41;130353;1264;107295;-79
2024/04/19 14:10:54;;;;;;;;;;;;;;;8.99;58.84;99154.69;130313;1271;108719;-78
2024/04/19 14:13:58;;;;;;;;;;;;;;;9.07;59.38;99145.48;130245;1268;108769;-79
2024/04/19 14:17:04;;;;;;;;;;;;;;;9.06;59.52;99138.10;130461;1257;108579;-81
2024/04/19 14:20:08;;;;;;;;;;;;;;;9.09;59.83;99140.98;130477;1260;105928;-79
2024/04/19 14:23:12;;;;;;;;;;;;;;;9.12;60.11;99138.68;132356;1262;108025;-77
2024/04/19 14:26:17;;;;;;;;;;;;;;;9.12;60.07;99137.46;130560;1263;108507;-78
2024/04/19 14:29:22;;;;;;;;;;;;;;;9.13;60.62;99131.83;130424;1271;107194;-77
2024/04/19 14:32:25;;;;;;;;;;;;;;;9.16;60.42;99133.95;130509;1267;105915;-77
2024/04/19 14:35:29;;;;;;;;;;;;;;;9.20;60.61;99130.34;130413;1264;108738;-77
2024/04/19 14:38:33;;;;;;;;;;;;;;;9.18;60.78;99128.45;130234;1263;106829;-77
2024/04/19 14:41:37;;;;;;;;;;;;;;;9.17;60.94;99112.41;130325;1263;108396;-77
2024/04/19 14:44:41;;;;;;;;;;;;;;;9.18;60.86;99096.39;130733;1271;107634;-82
2024/04/19 14:47:45;;;;;;;;;;;;;;;9.19;61.73;99092.65;130595;1261;204971;-82
2024/04/19 14:50:48;;;;;;;;;;;;;;;9.30;61.66;99104.91;130294;1263;106624;-81
2024/04/19 14:53:52;;;;;;;;;;;;;;;9.56;61.94;99093.52;130263;1273;106854;-82
2024/04/19 14:56:56;;;;;;;;;;;;;;;9.87;62.16;99093.28;130335;1263;108591;-83
2024/04/19 14:59:59;;;;;;;;;;;;;;;10.11;62.31;99083.02;130327;1265;107800;-80
2024/04/19 15:03:04;;;;;;;;;;;;;;;10.28;62.02;99080.71;130355;1257;106885;-81
2024/04/19 15:06:12;;;;;;;;;;;;;;;10.38;62.47;99080.27;130267;1258;106473;-82
2024/04/19 15:09:15;;;;;;;;;;;;;;;10.43;62.17;99076.01;130394;1257;106800;-85
2024/04/19 15:12:19;;;;;;;;;;;;;;;10.39;61.99;99078.16;130378;1262;106699;-84
2024/04/19 15:15:23;;;;;;;;;;;;;;;10.29;61.70;99079.21;130362;1262;105471;-82
2024/04/19 15:18:26;;;;;;;;;;;;;;;10.21;62.09;99078.86;130513;1263;108769;-84
2024/04/19 15:21:30;;;;;;;;;;;;;;;10.08;61.83;99065.44;130468;1262;107628;-83
2024/04/19 15:24:34;;;;;;;;;;;;;;;9.93;61.76;99061.89;130485;1270;107570;-84
2024/04/19 15:27:38;;;;;;;;;;;;;;;9.78;61.91;99058.45;130462;1257;108967;-85
2024/04/19 15:30:41;;;;;;;;;;;;;;;9.70;61.73;99053.88;130442;1271;107742;-84
2024/04/19 15:33:45;;;;;;;;;;;;;;;9.65;62.03;99042.92;130433;1262;106907;-84
2024/04/19 15:36:51;;;;;;;;;;;;;;;9.59;62.16;99038.36;130307;1273;107168;-83
2024/04/19 15:39:55;;;;;;;;;;;;;;;9.55;62.45;99030.24;130376;1263;107755;-83
2024/04/19 15:42:58;;;;;;;;;;;;;;;9.51;62.64;99024.35;130540;1271;106920;-84
2024/04/19 15:46:02;;;;;;;;;;;;;;;9.48;63.15;99030.52;130496;1264;108552;-83
2024/04/19 15:49:06;;;;;;;;;;;;;;;9.44;63.11;99031.99;130356;1263;108405;-83